Airfield :







YOU CAN JOIN US ON...

 
LOGIN :

Register | Disclaimer

   EN    FR    IT 

 









Legend :    VFR   Marginal VFR   IFR   Intensive IFR   Very Intensive IFR
Visi :
Ceiling :
>= 8 km
>= 3000ft
5 to 8 km
1000 to 3000 ft
1500m to 5 km
500 to 1000 ft
800 to 1500m
200 to 500 ft
< 800m
< 200 ft
Symbols :   Thunderstorms  Fog  Heavy snow  Heavy precipitations  Wind > 20 kt






- Airport Elevation : 172 ft
- IATA code : YYY


CYYY - Mont Joli

CURRENT METAR :
  • 050600Z 21010KT 30SM SKC 14/05 A2969 RMK SLP058 DENSITY ALT 400FT

EXPIRED METARs :
  • 050500Z 21011KT 30SM FEW090 15/06 A2969 RMK AC1 SLP058 DENSITY ALT 500FT
  • 050400Z 21010KT 30SM FEW080 14/07 A2969 RMK AC1 SLP058 DENSITY ALT 400FT

TAF TAF CYYY
Valid from the 05 at 02:00 until the 05 at 14:00 UTC


050144Z 0502/0514 23012KT P6SM FEW040 BKN080
BECMG 0512/0514 27008KT RMK NXT FCST BY 050800Z
CZUL FIR / North America



MET'MAP, your aeronautical weather chart ! - Copyright ORBIFLY December 2007 - Disclaimer

ORBIFLY MET'MAP TEAM :

Programming & Development : Alexandra Zaïnal
Concept & original design : Baudouin d'Aumeries
Assistance for programming : Marc-Olivier Méhu
Technical & hardware support : Manuel Goepfert

Contact : metmap@orbifly.com




SOURCES & CREDITS :

   NOAA